createdAt,value
2018-09-19T00:01:37.209Z,4.62
2018-09-19T00:04:07.203Z,4.87
2018-09-19T00:06:37.145Z,4.80
2018-09-19T00:09:10.086Z,4.35
2018-09-19T00:11:39.637Z,4.80
2018-09-19T00:14:09.507Z,4.77
2018-09-19T00:16:38.808Z,4.87
2018-09-19T00:19:08.141Z,4.65
2018-09-19T00:21:37.435Z,4.73
2018-09-19T00:24:07.152Z,5.03
2018-09-19T00:26:37.189Z,5.03
2018-09-19T00:29:07.222Z,5.12
2018-09-19T00:31:37.241Z,5.10
2018-09-19T00:34:07.274Z,4.35
2018-09-19T00:36:37.115Z,4.22
2018-09-19T00:39:08.797Z,4.53
2018-09-19T00:41:38.105Z,5.03
2018-09-19T00:44:07.441Z,4.87
2018-09-19T00:46:37.143Z,4.50
2018-09-19T00:49:07.211Z,4.33
2018-09-19T00:51:43.773Z,4.97
2018-09-19T00:54:13.071Z,4.60
2018-09-19T00:56:42.420Z,4.40
2018-09-19T00:59:11.693Z,4.42
2018-09-19T01:01:40.965Z,5.67
2018-09-19T01:04:10.273Z,4.23
2018-09-19T01:06:39.612Z,4.30
2018-09-19T01:09:09.874Z,4.77
2018-09-19T01:11:39.590Z,4.27
2018-09-19T01:14:08.889Z,4.77
2018-09-19T01:16:38.203Z,4.97
2018-09-19T01:19:07.508Z,4.83
2018-09-19T01:21:37.242Z,4.67
2018-09-19T01:24:07.234Z,4.10
2018-09-19T01:26:37.273Z,4.60
2018-09-19T01:31:41.887Z,3.92
2018-09-19T01:34:11.216Z,4.30
2018-09-19T01:36:40.552Z,4.83
2018-09-19T01:39:09.837Z,4.50
2018-09-19T01:41:39.166Z,4.30
2018-09-19T01:44:08.450Z,4.70
2018-09-19T01:46:37.740Z,4.80
2018-09-19T01:49:07.478Z,4.35
2018-09-19T01:51:37.269Z,4.90
2018-09-19T01:54:07.373Z,5.50
2018-09-19T01:56:37.351Z,4.97
2018-09-19T01:59:07.353Z,4.75
2018-09-19T02:01:37.402Z,4.33
2018-09-19T02:04:07.303Z,4.50
2018-09-19T02:06:37.286Z,4.33
2018-09-19T02:09:10.307Z,4.70
2018-09-19T02:11:39.753Z,4.67
2018-09-19T02:14:09.503Z,4.50
2018-09-19T02:16:39.181Z,4.77
2018-09-19T02:19:08.854Z,4.83
2018-09-19T02:21:38.350Z,4.70
2018-09-19T02:24:07.643Z,5.50
2018-09-19T02:26:37.411Z,4.90
2018-09-19T02:29:07.432Z,4.95
2018-09-19T02:31:37.321Z,5.55
2018-09-19T02:34:07.586Z,5.37
2018-09-19T02:36:37.370Z,4.92
2018-09-19T02:39:10.320Z,4.47
2018-09-19T02:41:39.646Z,5.50
2018-09-19T02:44:09.007Z,5.73
2018-09-19T02:46:38.353Z,5.87
2018-09-19T02:49:07.647Z,5.43
2018-09-19T02:51:37.387Z,6.50
2018-09-19T02:54:07.742Z,6.15
2018-09-19T02:56:37.397Z,5.65
2018-09-19T02:59:07.462Z,5.70
2018-09-19T03:01:37.469Z,6.15
2018-09-19T03:04:07.649Z,5.70
2018-09-19T03:06:37.554Z,6.08
2018-09-19T03:09:07.532Z,6.60
2018-09-19T03:11:37.461Z,6.25
2018-09-19T03:14:07.466Z,6.97
2018-09-19T03:16:37.537Z,7.28
2018-09-19T03:19:07.496Z,7.72
2018-09-19T03:21:37.539Z,6.87
2018-09-19T03:24:07.538Z,7.15
2018-09-19T03:26:37.605Z,7.20
2018-09-19T03:29:07.501Z,6.85
2018-09-19T03:31:37.508Z,7.53
2018-09-19T03:34:07.627Z,8.05
2018-09-19T03:39:10.860Z,7.40
2018-09-19T03:41:40.878Z,7.63
2018-09-19T03:44:10.148Z,8.80
2018-09-19T03:46:39.561Z,8.80
2018-09-19T03:49:09.508Z,8.90
2018-09-19T03:51:39.276Z,8.80
2018-09-19T03:54:08.807Z,9.20
2018-09-19T03:56:38.124Z,9.57
2018-09-19T03:59:07.694Z,9.80
2018-09-19T04:01:37.578Z,10.13
2018-09-19T04:04:08.834Z,9.88
2018-09-19T04:06:44.932Z,10.43
2018-09-19T04:09:14.803Z,10.20
2018-09-19T04:11:44.107Z,9.10
2018-09-19T04:14:13.426Z,9.15
2018-09-19T04:16:42.735Z,9.37
2018-09-19T04:19:12.073Z,9.25
2018-09-19T04:21:50.046Z,10.00
2018-09-19T04:24:19.357Z,9.93
2018-09-19T04:26:48.688Z,9.25
2018-09-19T04:29:18.012Z,9.90
2018-09-19T04:31:47.320Z,9.23
2018-09-19T04:34:16.930Z,10.55
2018-09-19T04:36:46.250Z,9.97
2018-09-19T04:39:15.567Z,9.57
2018-09-19T04:41:44.869Z,10.03
2018-09-19T04:44:14.232Z,9.83
2018-09-19T04:46:43.492Z,9.07
2018-09-19T04:49:12.784Z,9.57
2018-09-19T04:51:42.176Z,10.23
2018-09-19T04:54:11.426Z,9.90
2018-09-19T04:56:40.682Z,9.45
2018-09-19T04:59:10.015Z,9.23
2018-09-19T05:01:39.353Z,9.83
2018-09-19T05:04:08.647Z,10.43
2018-09-19T05:06:37.970Z,10.87
2018-09-19T05:09:09.643Z,10.10
2018-09-19T05:11:39.004Z,11.80
2018-09-19T05:14:08.512Z,11.27
2018-09-19T05:16:37.805Z,11.73
2018-09-19T05:19:07.866Z,12.15
2018-09-19T05:21:37.837Z,11.93
2018-09-19T05:24:07.769Z,12.75
2018-09-19T05:26:37.805Z,11.30
2018-09-19T05:29:07.805Z,10.58
2018-09-19T05:31:37.867Z,11.93
2018-09-19T05:34:07.779Z,12.18
2018-09-19T05:36:38.010Z,11.70
2018-09-19T05:39:08.738Z,11.80
2018-09-19T05:41:38.039Z,11.70
2018-09-19T05:44:07.837Z,13.05
2018-09-19T05:46:37.987Z,12.00
2018-09-19T05:49:07.820Z,13.10
2018-09-19T05:51:37.907Z,12.78
2018-09-19T05:54:07.931Z,11.78
2018-09-19T05:56:37.850Z,12.13
2018-09-19T05:59:07.843Z,11.83
2018-09-19T06:01:37.826Z,11.97
2018-09-19T06:04:07.966Z,12.20
2018-09-19T06:06:37.971Z,11.70
2018-09-19T06:09:10.511Z,11.00
2018-09-19T06:11:39.981Z,12.28
2018-09-19T06:14:09.418Z,11.43
2018-09-19T06:16:38.732Z,11.40
2018-09-19T06:19:08.029Z,10.90
2018-09-19T06:21:37.882Z,10.60
2018-09-19T06:24:07.977Z,10.15
2018-09-19T06:26:37.913Z,10.38
2018-09-19T06:29:07.934Z,9.90
2018-09-19T06:31:37.983Z,9.03
2018-09-19T06:34:08.117Z,8.80
2018-09-19T06:36:37.977Z,8.75
2018-09-19T06:39:09.530Z,8.45
2018-09-19T06:41:38.935Z,8.80
2018-09-19T06:44:08.354Z,7.77
2018-09-19T06:46:37.966Z,8.18
2018-09-19T06:49:07.918Z,6.87
2018-09-19T06:51:37.977Z,7.30
2018-09-19T06:54:08.016Z,7.83
2018-09-19T06:56:38.173Z,7.25
2018-09-19T06:59:08.047Z,7.10
2018-09-19T07:01:37.994Z,7.30
2018-09-19T07:04:08.067Z,6.08
2018-09-19T07:06:38.017Z,6.35
2018-09-19T07:09:09.757Z,6.15
2018-09-19T07:11:39.088Z,6.07
2018-09-19T07:14:08.459Z,5.13
2018-09-19T07:16:38.156Z,6.28
2018-09-19T07:19:08.036Z,5.33
2018-09-19T07:21:38.213Z,5.28
2018-09-19T07:24:08.111Z,5.55
2018-09-19T07:26:38.084Z,5.72
2018-09-19T07:29:08.135Z,5.30
2018-09-19T07:31:38.133Z,5.58
2018-09-19T07:34:08.094Z,4.70
2018-09-19T07:36:38.093Z,4.28
2018-09-19T07:39:11.060Z,4.87
2018-09-19T07:41:40.327Z,4.90
2018-09-19T07:44:09.752Z,4.33
2018-09-19T07:46:39.108Z,4.13
2018-09-19T07:49:08.376Z,4.70
2018-09-19T07:51:38.068Z,4.42
2018-09-19T07:54:12.821Z,4.42
2018-09-19T07:56:42.074Z,4.10
2018-09-19T07:59:11.411Z,4.17
2018-09-19T08:01:40.758Z,3.90
2018-09-19T08:04:10.058Z,4.17
2018-09-19T08:06:39.430Z,3.70
2018-09-19T08:09:09.723Z,3.63
2018-09-19T08:11:38.982Z,3.60
2018-09-19T08:14:08.368Z,3.50
2018-09-19T08:16:38.215Z,3.25
2018-09-19T08:19:08.450Z,3.40
2018-09-19T08:21:38.346Z,3.55
2018-09-19T08:24:08.258Z,3.15
2018-09-19T08:26:38.211Z,2.85
2018-09-19T08:29:08.377Z,3.22
2018-09-19T08:31:38.330Z,2.90
2018-09-19T08:34:08.329Z,3.00
2018-09-19T08:36:38.419Z,3.42
2018-09-19T08:39:09.945Z,2.75
2018-09-19T08:41:39.294Z,2.90
2018-09-19T08:44:08.592Z,2.77
2018-09-19T08:46:41.223Z,2.72
2018-09-19T08:49:10.523Z,2.87
2018-09-19T08:51:39.824Z,2.97
2018-09-19T08:54:09.179Z,2.63
2018-09-19T08:56:38.490Z,2.93
2018-09-19T08:59:08.338Z,3.20
2018-09-19T09:01:38.296Z,2.65
2018-09-19T09:04:08.422Z,2.80
2018-09-19T09:06:38.324Z,2.77
2018-09-19T09:09:08.512Z,2.52
2018-09-19T09:11:38.368Z,3.00
2018-09-19T09:14:08.407Z,2.60
2018-09-19T09:16:38.429Z,3.10
2018-09-19T09:19:08.385Z,2.40
2018-09-19T09:21:38.425Z,2.77
2018-09-19T09:24:08.387Z,2.50
2018-09-19T09:26:38.393Z,2.30
2018-09-19T09:29:08.375Z,2.40
2018-09-19T09:31:38.386Z,2.50
2018-09-19T09:34:08.462Z,2.10
2018-09-19T09:36:38.631Z,2.17
2018-09-19T09:39:08.449Z,2.35
2018-09-19T09:41:38.403Z,2.05
2018-09-19T09:44:08.471Z,2.37
2018-09-19T09:46:38.390Z,2.50
2018-09-19T09:49:08.460Z,2.40
2018-09-19T09:51:38.401Z,1.95
2018-09-19T09:54:08.409Z,2.10
2018-09-19T09:56:38.444Z,2.60
2018-09-19T09:59:08.541Z,2.43
2018-09-19T10:01:38.702Z,2.30
2018-09-19T10:04:08.531Z,1.92
2018-09-19T10:06:38.777Z,2.58
2018-09-19T10:09:15.173Z,3.20
2018-09-19T10:11:44.490Z,2.30
2018-09-19T10:14:13.798Z,2.10
2018-09-19T10:16:43.105Z,2.08
2018-09-19T10:19:12.379Z,1.87
2018-09-19T10:21:41.733Z,2.23
2018-09-19T10:24:11.061Z,1.87
2018-09-19T10:26:40.458Z,2.27
2018-09-19T10:29:09.730Z,2.57
2018-09-19T10:31:39.054Z,1.90
2018-09-19T10:34:08.608Z,2.65
2018-09-19T10:36:38.567Z,2.20
2018-09-19T10:39:08.683Z,2.30
2018-09-19T10:41:38.556Z,2.20
2018-09-19T10:44:08.596Z,2.20
2018-09-19T10:46:38.567Z,2.27
2018-09-19T10:49:08.597Z,2.05
2018-09-19T10:51:38.620Z,2.25
2018-09-19T10:54:08.636Z,2.40
2018-09-19T10:56:38.593Z,2.47
2018-09-19T10:59:08.664Z,2.20
2018-09-19T11:01:38.622Z,2.02
2018-09-19T11:04:08.622Z,2.30
2018-09-19T11:06:38.653Z,2.12
2018-09-19T11:09:10.924Z,2.10
2018-09-19T11:11:40.260Z,2.27
2018-09-19T11:14:09.549Z,1.95
2018-09-19T11:16:38.831Z,1.87
2018-09-19T11:19:08.633Z,2.20
2018-09-19T11:21:38.662Z,2.00
2018-09-19T11:24:09.047Z,1.90
2018-09-19T11:26:38.733Z,2.05
2018-09-19T11:29:15.264Z,1.80
2018-09-19T11:31:44.670Z,2.33
2018-09-19T11:34:13.998Z,2.10
2018-09-19T11:36:43.303Z,2.15
2018-09-19T11:39:13.619Z,2.20
2018-09-19T11:41:42.981Z,2.35
2018-09-19T11:44:12.273Z,2.50
2018-09-19T11:46:41.607Z,2.30
2018-09-19T11:49:10.889Z,2.07
2018-09-19T11:51:40.162Z,2.10
2018-09-19T11:54:09.493Z,2.27
2018-09-19T11:56:38.805Z,2.10
2018-09-19T11:59:08.665Z,2.37
2018-09-19T12:01:38.791Z,2.50
2018-09-19T12:04:08.691Z,2.15
2018-09-19T12:06:38.698Z,2.20
2018-09-19T12:09:12.050Z,2.40
2018-09-19T12:11:41.426Z,2.07
2018-09-19T12:14:10.754Z,1.70
2018-09-19T12:16:40.100Z,1.93
2018-09-19T12:19:09.425Z,1.97
2018-09-19T12:21:38.780Z,2.30
2018-09-19T12:24:08.741Z,2.10
2018-09-19T12:26:38.875Z,2.08
2018-09-19T12:29:08.804Z,2.22
2018-09-19T12:31:38.806Z,2.27
2018-09-19T12:34:08.821Z,2.40
2018-09-19T12:36:38.778Z,2.37
2018-09-19T12:39:10.536Z,2.22
2018-09-19T12:41:40.333Z,2.33
2018-09-19T12:44:09.873Z,2.87
2018-09-19T12:46:39.186Z,2.23
2018-09-19T12:49:08.878Z,2.27
2018-09-19T12:51:38.955Z,2.70
2018-09-19T12:54:08.859Z,3.00
2018-09-19T12:56:38.859Z,2.25
2018-09-19T12:59:08.941Z,2.33
2018-09-19T13:01:38.879Z,2.87
2018-09-19T13:04:08.953Z,3.10
2018-09-19T13:06:39.018Z,3.15
2018-09-19T13:09:10.985Z,2.90
2018-09-19T13:11:40.751Z,2.87
2018-09-19T13:14:10.098Z,2.90
2018-09-19T13:16:39.389Z,2.53
2018-09-19T13:19:08.911Z,3.25
2018-09-19T13:21:38.940Z,3.00
2018-09-19T13:24:08.847Z,3.37
2018-09-19T13:26:38.932Z,3.05
2018-09-19T13:29:08.943Z,3.37
2018-09-19T13:31:38.848Z,3.27
2018-09-19T13:34:08.921Z,3.00
2018-09-19T13:36:38.929Z,3.37
2018-09-19T13:39:11.001Z,3.40
2018-09-19T13:41:40.501Z,3.27
2018-09-19T13:44:09.790Z,3.57
2018-09-19T13:46:39.087Z,3.17
2018-09-19T13:49:48.094Z,3.37
2018-09-19T13:52:17.405Z,3.33
2018-09-19T13:54:46.795Z,3.30
2018-09-19T13:57:16.084Z,3.80
2018-09-19T13:59:45.376Z,3.12
2018-09-19T14:02:14.670Z,4.07
2018-09-19T14:04:43.966Z,3.46
2018-09-19T14:07:13.248Z,3.40
2018-09-19T14:09:42.562Z,3.33
2018-09-19T14:12:11.858Z,3.40
2018-09-19T14:14:41.181Z,3.80
2018-09-19T14:17:10.473Z,3.30
2018-09-19T14:19:39.795Z,3.50
2018-09-19T14:22:09.072Z,3.50
2018-09-19T14:24:38.981Z,4.07
2018-09-19T14:27:09.074Z,3.50
2018-09-19T14:29:39.029Z,3.75
2018-09-19T14:32:09.063Z,3.58
2018-09-19T14:34:39.005Z,3.60
2018-09-19T14:37:09.069Z,4.10
2018-09-19T14:39:39.095Z,3.77
2018-09-19T14:42:09.044Z,4.00
2018-09-19T14:44:39.113Z,3.65
2018-09-19T14:47:09.067Z,3.75
2018-09-19T14:49:39.042Z,3.85
2018-09-19T14:52:09.011Z,3.55
2018-09-19T14:54:39.108Z,4.28
2018-09-19T14:57:09.130Z,4.05
2018-09-19T14:59:39.266Z,3.83
2018-09-19T15:02:09.052Z,3.70
2018-09-19T15:04:39.114Z,3.80
2018-09-19T15:07:09.132Z,3.87
2018-09-19T15:09:39.189Z,3.37
2018-09-19T15:12:09.091Z,4.33
2018-09-19T15:14:39.195Z,4.30
2018-09-19T15:17:09.146Z,4.33
2018-09-19T15:19:39.130Z,3.60
2018-09-19T15:22:09.243Z,3.87
2018-09-19T15:24:39.092Z,4.00
2018-09-19T15:27:09.203Z,4.03
2018-09-19T15:29:45.702Z,4.08
2018-09-19T15:32:15.074Z,3.77
2018-09-19T15:34:44.378Z,3.53
2018-09-19T15:37:13.665Z,3.98
2018-09-19T15:39:43.014Z,3.63
2018-09-19T15:42:12.426Z,4.10
2018-09-19T15:44:41.714Z,4.23
2018-09-19T15:47:11.054Z,3.50
2018-09-19T15:49:40.439Z,3.73
2018-09-19T15:52:09.734Z,3.83
2018-09-19T15:54:39.304Z,3.87
2018-09-19T15:57:09.338Z,3.70
2018-09-19T15:59:39.253Z,3.62
2018-09-19T16:02:09.229Z,3.90
2018-09-19T16:04:39.174Z,3.47
2018-09-19T16:07:09.257Z,4.00
2018-09-19T16:09:39.302Z,3.52
2018-09-19T16:12:09.179Z,4.12
2018-09-19T16:14:39.318Z,4.10
2018-09-19T16:17:09.307Z,3.90
2018-09-19T16:19:39.205Z,3.77
2018-09-19T16:22:09.324Z,3.52
2018-09-19T16:24:39.234Z,3.92
2018-09-19T16:27:09.264Z,3.67
2018-09-19T16:29:39.245Z,4.05
2018-09-19T16:32:09.288Z,3.62
2018-09-19T16:34:39.244Z,3.75
2018-09-19T16:37:09.272Z,3.47
2018-09-19T16:39:39.270Z,3.15
2018-09-19T16:42:09.230Z,3.27
2018-09-19T16:44:39.334Z,3.60
2018-09-19T16:47:09.384Z,3.85
2018-09-19T16:49:39.321Z,3.70
2018-09-19T16:52:09.291Z,3.60
2018-09-19T16:54:39.333Z,3.50
2018-09-19T16:57:09.374Z,3.65
2018-09-19T16:59:39.361Z,3.30
2018-09-19T17:02:09.394Z,3.20
2018-09-19T17:04:39.270Z,2.92
2018-09-19T17:07:09.333Z,3.12
2018-09-19T17:09:39.384Z,3.05
2018-09-19T17:12:09.413Z,3.02
2018-09-19T17:14:39.379Z,3.05
2018-09-19T17:17:09.395Z,3.17
2018-09-19T17:19:39.438Z,2.60
2018-09-19T17:22:09.345Z,3.55
2018-09-19T17:24:39.363Z,2.85
2018-09-19T17:27:09.388Z,3.02
2018-09-19T17:29:39.532Z,3.08
2018-09-19T17:32:09.428Z,2.80
2018-09-19T17:34:39.483Z,3.70
2018-09-19T17:37:09.584Z,2.90
2018-09-19T17:39:39.407Z,2.90
2018-09-19T17:42:09.401Z,3.08
2018-09-19T17:44:39.446Z,7.83
2018-09-19T17:47:09.454Z,13.65
2018-09-19T17:49:39.476Z,19.00
2018-09-19T17:52:09.423Z,23.27
2018-09-19T17:54:39.539Z,31.17
2018-09-19T17:57:09.462Z,28.77
2018-09-19T17:59:39.493Z,30.63
2018-09-19T18:02:09.442Z,35.30
2018-09-19T18:04:45.738Z,36.73
2018-09-19T18:07:15.007Z,36.47
2018-09-19T18:09:44.277Z,41.08
2018-09-19T18:12:13.584Z,39.40
2018-09-19T18:14:42.972Z,41.13
2018-09-19T18:17:12.313Z,40.93
2018-09-19T18:19:41.665Z,41.13
2018-09-19T18:22:10.957Z,40.57
2018-09-19T18:24:40.267Z,40.00
2018-09-19T18:27:09.633Z,39.73
2018-09-19T18:29:39.526Z,41.73
2018-09-19T18:32:09.564Z,40.98
2018-09-19T18:34:39.676Z,42.00
2018-09-19T18:37:09.611Z,41.50
2018-09-19T18:39:39.611Z,41.10
2018-09-19T18:42:09.589Z,41.20
2018-09-19T18:44:39.516Z,40.05
2018-09-19T18:47:09.559Z,39.05
2018-09-19T18:49:39.534Z,37.73
2018-09-19T18:52:09.689Z,38.00
2018-09-19T18:54:39.666Z,38.33
2018-09-19T18:57:09.547Z,36.03
2018-09-19T18:59:39.606Z,34.88
2018-09-19T19:02:10.103Z,34.55
2018-09-19T19:04:39.615Z,32.37
2018-09-19T19:07:09.675Z,31.75
2018-09-19T19:09:39.683Z,30.20
2018-09-19T19:12:09.698Z,34.20
2018-09-19T19:14:39.667Z,29.95
2018-09-19T19:17:10.104Z,30.37
2018-09-19T19:19:39.776Z,29.40
2018-09-19T19:22:09.697Z,28.23
2018-09-19T19:24:39.945Z,27.52
2018-09-19T19:27:09.837Z,27.70
2018-09-19T19:29:39.785Z,27.20
2018-09-19T19:32:09.723Z,27.75
2018-09-19T19:34:39.665Z,27.15
2018-09-19T19:37:09.734Z,25.77
2018-09-19T19:39:39.830Z,26.17
2018-09-19T19:42:09.655Z,25.17
2018-09-19T19:44:39.820Z,24.63
2018-09-19T19:47:09.722Z,23.20
2018-09-19T19:49:39.794Z,22.65
2018-09-19T19:52:09.788Z,21.75
2018-09-19T19:54:39.814Z,20.55
2018-09-19T19:57:09.758Z,17.82
2018-09-19T19:59:39.903Z,15.45
2018-09-19T20:02:09.822Z,14.40
2018-09-19T20:04:39.766Z,12.23
2018-09-19T20:07:09.739Z,12.15
2018-09-19T20:09:39.899Z,11.12
2018-09-19T20:12:09.914Z,10.00
2018-09-19T20:14:39.829Z,9.73
2018-09-19T20:17:09.839Z,9.38
2018-09-19T20:19:39.818Z,8.80
2018-09-19T20:22:10.546Z,7.95
2018-09-19T20:24:40.287Z,8.47
2018-09-19T20:27:10.113Z,8.33
2018-09-19T20:29:44.249Z,7.83
2018-09-19T20:32:13.606Z,7.13
2018-09-19T20:34:42.954Z,7.90
2018-09-19T20:37:12.371Z,8.40
2018-09-19T20:39:41.654Z,8.57
2018-09-19T20:42:11.047Z,9.47
2018-09-19T20:44:40.387Z,9.17
2018-09-19T20:47:09.870Z,8.13
2018-09-19T20:49:39.824Z,8.43
2018-09-19T20:52:09.825Z,8.10
2018-09-19T20:54:39.827Z,7.85
2018-09-19T20:57:09.814Z,7.58
2018-09-19T20:59:39.971Z,8.30
2018-09-19T21:02:09.887Z,7.87
2018-09-19T21:04:39.936Z,7.95
2018-09-19T21:07:09.883Z,7.42
2018-09-19T21:09:39.920Z,7.37
2018-09-19T21:12:09.919Z,7.63
2018-09-19T21:14:39.961Z,7.20
2018-09-19T21:17:10.043Z,6.58
2018-09-19T21:19:39.952Z,6.33
2018-09-19T21:22:10.029Z,6.75
2018-09-19T21:24:39.981Z,6.30
2018-09-19T21:27:10.291Z,6.40
2018-09-19T21:29:39.959Z,7.33
2018-09-19T21:32:09.982Z,6.37
2018-09-19T21:34:39.918Z,6.93
2018-09-19T21:37:09.913Z,6.92
2018-09-19T21:39:39.947Z,7.03
2018-09-19T21:42:09.988Z,6.65
2018-09-19T21:44:39.999Z,6.33
2018-09-19T21:47:10.014Z,6.47
2018-09-19T21:49:39.984Z,6.20
2018-09-19T21:52:09.922Z,6.60
2018-09-19T21:54:40.294Z,6.10
2018-09-19T21:57:10.006Z,6.33
2018-09-19T21:59:40.012Z,6.47
2018-09-19T22:02:09.998Z,6.35
2018-09-19T22:04:39.978Z,6.00
2018-09-19T22:07:10.113Z,5.72
2018-09-19T22:09:39.962Z,6.42
2018-09-19T22:12:10.807Z,6.30
2018-09-19T22:14:41.719Z,6.03
2018-09-19T22:17:11.143Z,5.62
2018-09-19T22:19:40.487Z,6.03
2018-09-19T22:22:10.010Z,6.67
2018-09-19T22:24:40.064Z,7.20
2018-09-19T22:27:10.022Z,7.40
2018-09-19T22:29:40.006Z,6.83
2018-09-19T22:32:10.018Z,7.10
2018-09-19T22:34:40.022Z,7.42
2018-09-19T22:37:09.975Z,7.22
2018-09-19T22:39:40.054Z,7.85
2018-09-19T22:42:10.066Z,7.65
2018-09-19T22:44:40.166Z,7.50
2018-09-19T22:47:10.211Z,7.30
2018-09-19T22:49:40.142Z,6.90
2018-09-19T22:52:10.158Z,6.65
2018-09-19T22:54:40.158Z,7.05
2018-09-19T22:57:10.134Z,6.50
2018-09-19T22:59:40.114Z,6.53
2018-09-19T23:02:10.101Z,7.12
2018-09-19T23:04:40.134Z,6.62
2018-09-19T23:07:10.215Z,6.40
2018-09-19T23:09:40.048Z,6.60
2018-09-19T23:12:10.091Z,6.47
2018-09-19T23:14:40.239Z,5.97
2018-09-19T23:17:10.105Z,6.62
2018-09-19T23:19:40.085Z,6.10
2018-09-19T23:22:10.208Z,6.17
2018-09-19T23:24:40.120Z,5.97
2018-09-19T23:27:10.225Z,5.47
2018-09-19T23:29:40.164Z,5.67
2018-09-19T23:32:10.158Z,5.40
2018-09-19T23:34:40.134Z,5.53
2018-09-19T23:37:10.218Z,5.17
2018-09-19T23:39:40.161Z,5.03
2018-09-19T23:42:10.243Z,5.50
2018-09-19T23:44:40.218Z,5.28
2018-09-19T23:47:10.233Z,5.33
2018-09-19T23:49:40.129Z,6.17
2018-09-19T23:52:10.189Z,4.62
2018-09-19T23:54:40.282Z,5.10
2018-09-19T23:57:10.276Z,4.80
2018-09-19T23:59:40.271Z,5.22
